createdAt,value
2018-08-30T00:01:39.868Z,3.73
2018-08-30T00:05:04.813Z,5.10
2018-08-30T00:08:29.543Z,4.50
2018-08-30T00:11:54.240Z,3.83
2018-08-30T00:15:19.000Z,3.77
2018-08-30T00:18:44.188Z,3.07
2018-08-30T00:22:08.991Z,3.47
2018-08-30T00:25:33.731Z,3.33
2018-08-30T00:28:58.338Z,3.57
2018-08-30T00:32:23.009Z,5.17
2018-08-30T00:35:47.683Z,5.33
2018-08-30T00:39:12.384Z,3.60
2018-08-30T00:42:37.045Z,3.30
2018-08-30T00:46:01.749Z,3.50
2018-08-30T00:49:26.454Z,4.83
2018-08-30T00:52:51.088Z,6.00
2018-08-30T00:56:15.768Z,4.20
2018-08-30T00:59:40.427Z,4.97
2018-08-30T01:03:05.172Z,4.97
2018-08-30T01:06:29.934Z,4.07
2018-08-30T01:09:55.024Z,4.10
2018-08-30T01:13:19.705Z,5.57
2018-08-30T01:16:44.388Z,3.87
2018-08-30T01:20:09.880Z,4.80
2018-08-30T01:23:34.698Z,4.17
2018-08-30T01:26:59.346Z,3.20
2018-08-30T01:30:24.112Z,4.17
2018-08-30T01:33:48.828Z,3.17
2018-08-30T01:37:13.752Z,2.87
2018-08-30T01:40:38.400Z,4.77
2018-08-30T01:44:03.188Z,3.60
2018-08-30T01:47:27.896Z,3.13
2018-08-30T01:50:52.558Z,3.43
2018-08-30T01:54:17.202Z,2.87
2018-08-30T01:57:41.860Z,2.80
2018-08-30T02:01:06.640Z,2.50
2018-08-30T02:04:31.849Z,2.47
2018-08-30T02:07:56.590Z,2.83
2018-08-30T02:11:21.354Z,2.73
2018-08-30T02:14:45.982Z,2.53
2018-08-30T02:18:10.653Z,3.30
2018-08-30T02:22:59.694Z,3.67
2018-08-30T02:26:24.373Z,2.93
2018-08-30T02:29:48.973Z,3.93
2018-08-30T02:33:13.663Z,4.40
2018-08-30T02:36:38.345Z,2.27
2018-08-30T02:40:03.028Z,2.60
2018-08-30T02:43:27.778Z,2.67
2018-08-30T02:46:52.476Z,2.77
2018-08-30T02:50:17.184Z,2.90
2018-08-30T02:53:41.950Z,3.23
2018-08-30T02:57:06.629Z,3.13
2018-08-30T03:00:31.253Z,3.13
2018-08-30T03:03:55.895Z,4.27
2018-08-30T03:07:20.529Z,3.93
2018-08-30T03:10:45.186Z,4.00
2018-08-30T03:14:09.871Z,3.37
2018-08-30T03:17:34.824Z,3.60
2018-08-30T03:20:59.485Z,3.20
2018-08-30T03:24:24.224Z,2.93
2018-08-30T03:27:48.969Z,2.70
2018-08-30T03:31:13.601Z,2.90
2018-08-30T03:34:38.242Z,3.80
2018-08-30T03:38:02.955Z,2.83
2018-08-30T03:41:27.660Z,3.00
2018-08-30T03:44:52.332Z,2.83
2018-08-30T03:48:17.099Z,2.57
2018-08-30T03:51:41.761Z,2.80
2018-08-30T03:55:06.655Z,3.13
2018-08-30T04:02:06.198Z,3.00
2018-08-30T04:05:30.936Z,2.77
2018-08-30T04:08:55.603Z,3.50
2018-08-30T04:12:20.262Z,2.53
2018-08-30T04:15:44.893Z,3.40
2018-08-30T04:19:09.578Z,2.90
2018-08-30T04:22:34.271Z,3.07
2018-08-30T04:25:58.992Z,3.40
2018-08-30T04:29:23.668Z,2.80
2018-08-30T04:32:48.329Z,2.40
2018-08-30T04:36:12.992Z,2.40
2018-08-30T04:39:37.670Z,2.50
2018-08-30T04:43:02.352Z,3.17
2018-08-30T04:46:27.059Z,2.50
2018-08-30T04:49:51.762Z,1.67
2018-08-30T04:53:16.429Z,3.43
2018-08-30T04:56:41.851Z,2.33
2018-08-30T05:00:07.426Z,2.47
2018-08-30T05:03:32.119Z,2.30
2018-08-30T05:06:57.135Z,2.40
2018-08-30T05:10:21.936Z,3.13
2018-08-30T05:13:46.600Z,2.50
2018-08-30T05:17:11.411Z,2.43
2018-08-30T05:20:36.348Z,2.80
2018-08-30T05:24:01.151Z,2.57
2018-08-30T05:27:26.151Z,4.43
2018-08-30T05:30:51.984Z,3.57
2018-08-30T05:34:18.305Z,5.57
2018-08-30T05:37:44.558Z,4.37
2018-08-30T05:41:09.563Z,4.43
2018-08-30T05:44:34.632Z,5.10
2018-08-30T05:48:00.519Z,5.70
2018-08-30T05:51:25.228Z,5.40
2018-08-30T05:54:49.910Z,6.33
2018-08-30T05:58:14.571Z,5.10
2018-08-30T06:01:39.235Z,7.53
2018-08-30T06:05:03.999Z,7.00
2018-08-30T06:08:28.841Z,7.97
2018-08-30T06:11:53.491Z,7.70
2018-08-30T06:15:18.147Z,7.23
2018-08-30T06:18:42.807Z,6.60
2018-08-30T06:22:07.528Z,9.13
2018-08-30T06:25:32.208Z,7.70
2018-08-30T06:28:57.652Z,50.43
2018-08-30T06:32:22.390Z,15.60
2018-08-30T06:35:47.238Z,9.60
2018-08-30T06:39:11.885Z,13.57
2018-08-30T06:42:36.533Z,10.43
2018-08-30T06:47:25.701Z,10.37
2018-08-30T06:50:51.211Z,9.90
2018-08-30T06:54:16.046Z,9.73
2018-08-30T06:57:44.181Z,12.37
2018-08-30T07:01:10.321Z,8.07
2018-08-30T07:04:35.793Z,10.07
2018-08-30T07:08:01.419Z,7.30
2018-08-30T07:11:26.333Z,9.63
2018-08-30T07:14:51.128Z,10.53
2018-08-30T07:18:16.913Z,10.10
2018-08-30T07:21:41.645Z,10.87
2018-08-30T07:25:06.819Z,7.53
2018-08-30T07:28:40.448Z,9.60
2018-08-30T07:32:05.870Z,6.70
2018-08-30T07:35:30.509Z,7.30
2018-08-30T07:38:55.291Z,7.40
2018-08-30T07:42:20.055Z,9.30
2018-08-30T07:45:44.679Z,8.67
2018-08-30T07:49:10.022Z,9.07
2018-08-30T07:52:34.637Z,7.53
2018-08-30T07:55:59.308Z,7.57
2018-08-30T07:59:24.033Z,7.73
2018-08-30T08:02:48.755Z,8.63
2018-08-30T08:06:13.382Z,8.43
2018-08-30T08:09:38.098Z,7.40
2018-08-30T08:13:02.759Z,9.57
2018-08-30T08:16:27.477Z,6.70
2018-08-30T08:19:52.157Z,8.43
2018-08-30T08:23:16.821Z,10.60
2018-08-30T08:26:41.473Z,9.30
2018-08-30T08:30:06.426Z,8.23
2018-08-30T08:33:31.110Z,11.03
2018-08-30T08:36:55.900Z,8.33
2018-08-30T08:40:20.569Z,7.57
2018-08-30T08:43:45.319Z,9.37
2018-08-30T08:47:10.085Z,8.17
2018-08-30T08:50:34.825Z,9.17
2018-08-30T08:53:59.614Z,11.30
2018-08-30T08:57:24.344Z,10.03
2018-08-30T09:00:49.139Z,8.50
2018-08-30T09:04:14.022Z,8.83
2018-08-30T09:07:38.945Z,10.87
2018-08-30T09:11:03.661Z,9.90
2018-08-30T09:14:28.360Z,12.70
2018-08-30T09:17:53.117Z,10.80
2018-08-30T09:21:17.750Z,11.67
2018-08-30T09:24:42.723Z,12.33
2018-08-30T09:28:07.418Z,12.10
2018-08-30T09:31:32.048Z,11.07
2018-08-30T09:34:56.780Z,11.77
2018-08-30T09:38:21.408Z,10.80
2018-08-30T09:41:46.094Z,10.90
2018-08-30T09:45:10.763Z,9.97
2018-08-30T09:48:35.420Z,11.87
2018-08-30T09:52:00.091Z,10.33
2018-08-30T09:55:24.770Z,10.40
2018-08-30T09:58:49.435Z,10.23
2018-08-30T10:02:19.292Z,11.10
2018-08-30T10:05:43.977Z,11.13
2018-08-30T10:09:10.871Z,9.77
2018-08-30T10:12:35.710Z,9.87
2018-08-30T10:16:00.567Z,8.10
2018-08-30T10:19:25.136Z,9.37
2018-08-30T10:22:49.841Z,10.43
2018-08-30T10:26:14.609Z,9.33
2018-08-30T10:29:39.453Z,9.60
2018-08-30T10:33:13.137Z,10.20
2018-08-30T10:36:37.980Z,11.23
2018-08-30T10:40:02.878Z,11.63
2018-08-30T10:43:27.691Z,10.97
2018-08-30T10:46:52.383Z,10.67
2018-08-30T10:50:21.255Z,10.63
2018-08-30T10:53:46.078Z,10.67
2018-08-30T10:57:10.924Z,10.77
2018-08-30T11:00:36.038Z,8.80
2018-08-30T11:04:01.251Z,10.60
2018-08-30T11:07:26.240Z,9.63
2018-08-30T11:10:51.061Z,9.10
2018-08-30T11:14:15.996Z,11.87
2018-08-30T11:17:40.671Z,9.03
2018-08-30T11:21:05.416Z,9.60
2018-08-30T11:24:30.241Z,9.67
2018-08-30T11:27:55.043Z,8.33
2018-08-30T11:31:19.810Z,12.67
2018-08-30T11:34:44.568Z,9.17
2018-08-30T11:38:09.249Z,10.47
2018-08-30T11:41:34.127Z,11.53
2018-08-30T11:44:58.733Z,11.43
2018-08-30T11:48:23.509Z,10.10
2018-08-30T11:53:12.638Z,9.73
2018-08-30T11:56:37.298Z,8.73
2018-08-30T12:00:01.984Z,10.07
2018-08-30T12:03:26.659Z,9.17
2018-08-30T12:06:51.377Z,11.57
2018-08-30T12:10:16.140Z,9.70
2018-08-30T12:13:40.790Z,10.77
2018-08-30T12:17:05.555Z,8.47
2018-08-30T12:20:30.359Z,12.20
2018-08-30T12:23:55.049Z,12.03
2018-08-30T12:27:19.691Z,11.80
2018-08-30T12:30:44.396Z,10.60
2018-08-30T12:34:09.189Z,9.73
2018-08-30T12:37:33.923Z,12.23
2018-08-30T12:40:58.689Z,10.20
2018-08-30T12:44:23.341Z,10.13
2018-08-30T12:47:48.040Z,9.87
2018-08-30T12:51:12.662Z,10.20
2018-08-30T12:54:37.542Z,9.77
2018-08-30T12:58:02.219Z,8.67
2018-08-30T13:01:27.022Z,9.67
2018-08-30T13:04:51.706Z,11.50
2018-08-30T13:08:16.588Z,10.63
2018-08-30T13:11:41.198Z,9.40
2018-08-30T13:15:06.213Z,10.07
2018-08-30T13:18:30.546Z,9.80
2018-08-30T13:21:55.216Z,10.10
2018-08-30T13:25:19.883Z,9.17
2018-08-30T13:28:44.808Z,9.67
2018-08-30T13:32:09.583Z,11.70
2018-08-30T13:35:34.271Z,8.07
2018-08-30T13:38:59.101Z,9.13
2018-08-30T13:42:23.767Z,11.40
2018-08-30T13:45:48.492Z,8.87
2018-08-30T13:49:13.305Z,8.87
2018-08-30T13:52:37.867Z,9.77
2018-08-30T13:56:02.665Z,9.63
2018-08-30T13:59:27.478Z,12.17
2018-08-30T14:02:51.770Z,8.47
2018-08-30T14:06:16.720Z,9.03
2018-08-30T14:09:41.347Z,11.30
2018-08-30T14:13:08.645Z,11.93
2018-08-30T14:16:34.796Z,10.33
2018-08-30T14:20:00.266Z,8.40
2018-08-30T14:23:26.330Z,10.13
2018-08-30T14:26:52.672Z,9.93
2018-08-30T14:30:17.801Z,9.57
2018-08-30T14:33:42.948Z,9.90
2018-08-30T14:37:07.871Z,8.60
2018-08-30T14:40:33.386Z,10.30
2018-08-30T14:44:00.708Z,12.40
2018-08-30T14:47:26.049Z,14.40
2018-08-30T14:50:50.984Z,12.13
2018-08-30T14:54:15.948Z,8.97
2018-08-30T14:57:41.083Z,12.07
2018-08-30T15:01:06.338Z,10.23
2018-08-30T15:04:31.542Z,9.20
2018-08-30T15:07:56.792Z,10.57
2018-08-30T15:11:22.360Z,8.87
2018-08-30T15:14:47.340Z,11.27
2018-08-30T15:18:12.089Z,9.17
2018-08-30T15:21:36.795Z,14.40
2018-08-30T15:25:01.976Z,16.17
2018-08-30T15:28:27.304Z,11.00
2018-08-30T15:31:51.868Z,10.50
2018-08-30T15:35:16.594Z,9.23
2018-08-30T15:38:41.271Z,12.00
2018-08-30T15:42:06.109Z,8.83
2018-08-30T15:45:30.893Z,11.37
2018-08-30T15:48:55.674Z,10.20
2018-08-30T15:52:20.269Z,8.97
2018-08-30T15:55:45.121Z,9.30
2018-08-30T15:59:09.818Z,12.57
2018-08-30T16:02:34.477Z,9.80
2018-08-30T16:05:59.317Z,11.30
2018-08-30T16:09:24.057Z,10.30
2018-08-30T16:12:48.830Z,11.33
2018-08-30T16:16:13.567Z,10.87
2018-08-30T16:19:38.535Z,11.57
2018-08-30T16:23:20.285Z,10.03
2018-08-30T16:26:45.041Z,11.53
2018-08-30T16:33:44.415Z,10.90
2018-08-30T16:37:09.287Z,10.67
2018-08-30T16:41:59.634Z,11.07
2018-08-30T16:45:24.516Z,11.00
2018-08-30T16:48:49.492Z,10.43
2018-08-30T16:52:14.159Z,10.53
2018-08-30T16:55:38.964Z,10.47
2018-08-30T16:59:03.721Z,11.17
2018-08-30T17:02:28.351Z,9.63
2018-08-30T17:05:53.331Z,9.77
2018-08-30T17:09:18.016Z,10.03
2018-08-30T17:12:45.141Z,9.33
2018-08-30T17:16:09.846Z,10.77
2018-08-30T17:19:35.081Z,8.37
2018-08-30T17:22:59.751Z,9.70
2018-08-30T17:26:24.394Z,11.07
2018-08-30T17:29:49.059Z,12.57
2018-08-30T17:33:13.667Z,12.20
2018-08-30T17:36:38.328Z,9.93
2018-08-30T17:40:03.025Z,8.63
2018-08-30T17:43:27.713Z,11.53
2018-08-30T17:46:52.466Z,9.20
2018-08-30T17:50:17.897Z,11.77
2018-08-30T17:53:42.707Z,11.13
2018-08-30T17:57:07.545Z,9.97
2018-08-30T18:00:33.441Z,12.80
2018-08-30T18:03:58.213Z,13.50
2018-08-30T18:07:23.353Z,9.03
2018-08-30T18:10:48.162Z,10.40
2018-08-30T18:14:13.073Z,11.17
2018-08-30T18:17:37.871Z,9.77
2018-08-30T18:21:02.571Z,10.27
2018-08-30T18:24:27.374Z,10.03
2018-08-30T18:27:52.101Z,10.67
2018-08-30T18:31:17.177Z,11.43
2018-08-30T18:34:42.002Z,12.10
2018-08-30T18:38:06.782Z,10.87
2018-08-30T18:41:32.463Z,12.53
2018-08-30T18:44:57.414Z,12.43
2018-08-30T18:48:22.212Z,10.37
2018-08-30T18:51:47.010Z,11.83
2018-08-30T18:55:11.793Z,11.10
2018-08-30T18:58:36.584Z,9.13
2018-08-30T19:02:01.337Z,12.37
2018-08-30T19:05:26.294Z,12.13
2018-08-30T19:08:50.976Z,13.37
2018-08-30T19:12:15.740Z,10.63
2018-08-30T19:15:45.634Z,10.80
2018-08-30T19:19:13.361Z,10.13
2018-08-30T19:22:38.370Z,12.57
2018-08-30T19:26:03.129Z,10.67
2018-08-30T19:29:28.261Z,9.97
2018-08-30T19:32:53.053Z,11.40
2018-08-30T19:36:23.304Z,11.57
2018-08-30T19:39:48.248Z,9.33
2018-08-30T19:43:13.535Z,10.73
2018-08-30T19:46:38.258Z,10.63
2018-08-30T19:50:02.973Z,9.03
2018-08-30T19:53:27.746Z,9.03
2018-08-30T19:56:52.412Z,10.80
2018-08-30T20:00:17.234Z,12.67
2018-08-30T20:03:42.722Z,10.60
2018-08-30T20:07:07.412Z,12.40
2018-08-30T20:10:32.137Z,11.03
2018-08-30T20:13:56.858Z,12.67
2018-08-30T20:17:21.627Z,12.37
2018-08-30T20:20:46.407Z,11.07
2018-08-30T20:24:11.293Z,12.73
2018-08-30T20:27:36.284Z,13.77
2018-08-30T20:31:01.034Z,15.80
2018-08-30T20:34:25.826Z,12.40
2018-08-30T20:37:50.492Z,12.60
2018-08-30T20:41:15.321Z,13.10
2018-08-30T20:44:39.924Z,13.57
2018-08-30T20:48:06.413Z,18.20
2018-08-30T20:51:31.161Z,15.27
2018-08-30T20:54:55.921Z,11.70
2018-08-30T20:58:20.689Z,14.80
2018-08-30T21:01:45.507Z,12.97
2018-08-30T21:05:10.222Z,12.43
2018-08-30T21:08:35.010Z,11.63
2018-08-30T21:11:59.678Z,11.53
2018-08-30T21:15:24.353Z,12.60
2018-08-30T21:18:49.009Z,10.67
2018-08-30T21:22:13.760Z,11.17
2018-08-30T21:25:38.467Z,9.57
2018-08-30T21:29:03.181Z,11.60
2018-08-30T21:32:27.910Z,10.67
2018-08-30T21:35:52.684Z,12.43
2018-08-30T21:39:20.935Z,12.70
2018-08-30T21:42:45.640Z,11.50
2018-08-30T21:46:11.437Z,11.63
2018-08-30T21:49:36.182Z,12.97
2018-08-30T21:53:00.900Z,14.13
2018-08-30T21:56:25.716Z,13.23
2018-08-30T21:59:50.414Z,10.67
2018-08-30T22:03:15.095Z,13.07
2018-08-30T22:06:39.835Z,16.03
2018-08-30T22:10:04.720Z,13.30
2018-08-30T22:13:29.482Z,13.70
2018-08-30T22:16:54.339Z,12.63
2018-08-30T22:20:18.989Z,12.27
2018-08-30T22:23:44.219Z,12.10
2018-08-30T22:27:08.945Z,10.63
2018-08-30T22:30:33.594Z,12.23
2018-08-30T22:33:58.249Z,14.97
2018-08-30T22:37:22.987Z,11.37
2018-08-30T22:40:47.730Z,12.63
2018-08-30T22:44:12.313Z,14.00
2018-08-30T22:47:36.976Z,11.77
2018-08-30T22:51:01.609Z,14.27
2018-08-30T22:54:26.300Z,12.83
2018-08-30T22:57:50.986Z,12.67
2018-08-30T23:01:15.727Z,12.73
2018-08-30T23:04:40.383Z,12.43
2018-08-30T23:08:05.118Z,14.67
2018-08-30T23:11:30.455Z,13.07
2018-08-30T23:14:55.137Z,12.93
2018-08-30T23:18:19.792Z,13.73
2018-08-30T23:21:44.495Z,12.97
2018-08-30T23:25:09.302Z,11.33
2018-08-30T23:28:33.929Z,12.03
2018-08-30T23:31:58.581Z,14.90
2018-08-30T23:35:23.334Z,13.40
2018-08-30T23:38:48.124Z,12.00
2018-08-30T23:42:12.829Z,11.97
2018-08-30T23:45:37.487Z,12.97
2018-08-30T23:49:02.222Z,11.63
2018-08-30T23:52:26.975Z,12.23
2018-08-30T23:55:51.628Z,11.33
2018-08-30T23:59:33.641Z,11.73
